sensor_id;sensor_type;location;lat;lon;timestamp;pressure;altitude;pressure_sealevel;temperature;humidity
16664;BME280;8445;51.270;9.434;2023-02-14T00:01:23;101464.19;;;1.75;76.19
16664;BME280;8445;51.270;9.434;2023-02-14T00:03:49;101473.78;;;1.72;76.12
16664;BME280;8445;51.270;9.434;2023-02-14T00:06:14;101470.31;;;1.71;76.26
16664;BME280;8445;51.270;9.434;2023-02-14T00:08:41;101470.31;;;1.71;75.85
16664;BME280;8445;51.270;9.434;2023-02-14T00:11:09;101462.50;;;1.70;76.07
16664;BME280;8445;51.270;9.434;2023-02-14T00:13:35;101463.34;;;1.73;75.94
16664;BME280;8445;51.270;9.434;2023-02-14T00:16:00;101460.72;;;1.76;75.75
16664;BME280;8445;51.270;9.434;2023-02-14T00:18:26;101459.84;;;1.76;76.02
16664;BME280;8445;51.270;9.434;2023-02-14T00:21:11;101462.41;;;1.79;75.70
16664;BME280;8445;51.270;9.434;2023-02-14T00:23:37;101464.16;;;1.80;76.39
16664;BME280;8445;51.270;9.434;2023-02-14T00:26:02;101465.94;;;1.75;76.22
16664;BME280;8445;51.270;9.434;2023-02-14T00:28:28;101468.59;;;1.67;75.97
16664;BME280;8445;51.270;9.434;2023-02-14T00:30:56;101468.63;;;1.58;75.95
16664;BME280;8445;51.270;9.434;2023-02-14T00:33:21;101472.16;;;1.47;76.17
16664;BME280;8445;51.270;9.434;2023-02-14T00:35:47;101467.00;;;1.35;76.16
16664;BME280;8445;51.270;9.434;2023-02-14T00:38:13;101463.56;;;1.30;76.23
16664;BME280;8445;51.270;9.434;2023-02-14T00:40:38;101466.16;;;1.27;76.53
16664;BME280;8445;51.270;9.434;2023-02-14T00:43:04;101463.56;;;1.19;76.31
16664;BME280;8445;51.270;9.434;2023-02-14T00:45:29;101469.72;;;1.06;76.36
16664;BME280;8445;51.270;9.434;2023-02-14T00:47:55;101477.56;;;0.93;76.67
16664;BME280;8445;51.270;9.434;2023-02-14T00:50:20;101480.19;;;0.87;76.23
16664;BME280;8445;51.270;9.434;2023-02-14T00:52:45;101476.69;;;0.93;77.01
16664;BME280;8445;51.270;9.434;2023-02-14T00:55:11;101478.44;;;0.92;76.79
16664;BME280;8445;51.270;9.434;2023-02-14T00:57:36;101484.50;;;0.88;76.87
16664;BME280;8445;51.270;9.434;2023-02-14T01:00:03;101481.91;;;0.88;76.33
16664;BME280;8445;51.270;9.434;2023-02-14T01:02:29;101491.50;;;0.84;76.08
16664;BME280;8445;51.270;9.434;2023-02-14T01:04:54;101480.19;;;0.87;76.48
16664;BME280;8445;51.270;9.434;2023-02-14T01:07:20;101479.31;;;0.88;77.45
16664;BME280;8445;51.270;9.434;2023-02-14T01:09:47;101477.56;;;0.87;77.12
16664;BME280;8445;51.270;9.434;2023-02-14T01:12:12;101484.53;;;0.85;77.01
16664;BME280;8445;51.270;9.434;2023-02-14T01:14:40;101475.84;;;0.84;76.98
16664;BME280;8445;51.270;9.434;2023-02-14T01:17:06;101481.06;;;0.83;77.35
16664;BME280;8445;51.270;9.434;2023-02-14T01:19:31;101481.06;;;0.84;77.24
16664;BME280;8445;51.270;9.434;2023-02-14T01:21:58;101486.28;;;0.84;77.94
16664;BME280;8445;51.270;9.434;2023-02-14T01:24:24;101485.38;;;0.87;77.00
16664;BME280;8445;51.270;9.434;2023-02-14T01:26:50;101488.00;;;0.90;76.80
16664;BME280;8445;51.270;9.434;2023-02-14T01:29:16;101488.84;;;0.89;76.84
16664;BME280;8445;51.270;9.434;2023-02-14T01:31:41;101491.50;;;0.84;76.46
16664;BME280;8445;51.270;9.434;2023-02-14T01:34:07;101484.53;;;0.79;76.79
16664;BME280;8445;51.270;9.434;2023-02-14T01:36:36;101482.81;;;0.73;76.94
16664;BME280;8445;51.270;9.434;2023-02-14T01:39:09;101473.25;;;0.67;77.21
16664;BME280;8445;51.270;9.434;2023-02-14T01:41:36;101481.06;;;0.61;76.89
16664;BME280;8445;51.270;9.434;2023-02-14T01:46:57;101488.03;;;0.43;77.01
16664;BME280;8445;51.270;9.434;2023-02-14T01:49:28;101481.09;;;0.36;76.68
16664;BME280;8445;51.270;9.434;2023-02-14T01:52:00;101483.69;;;0.27;77.22
16664;BME280;8445;51.270;9.434;2023-02-14T01:54:28;101478.47;;;0.16;77.07
16664;BME280;8445;51.270;9.434;2023-02-14T01:56:58;101472.38;;;0.03;77.03
16664;BME280;8445;51.270;9.434;2023-02-14T01:59:27;101473.22;;;-0.20;77.18
16664;BME280;8445;51.270;9.434;2023-02-14T02:01:55;101474.91;;;-0.34;77.21
16664;BME280;8445;51.270;9.434;2023-02-14T02:04:25;101468.81;;;-0.39;77.67
16664;BME280;8445;51.270;9.434;2023-02-14T02:06:58;101464.50;;;-0.31;77.55
16664;BME280;8445;51.270;9.434;2023-02-14T02:09:39;101474.09;;;-0.21;78.35
16664;BME280;8445;51.270;9.434;2023-02-14T02:12:07;101464.56;;;-0.19;77.15
16664;BME280;8445;51.270;9.434;2023-02-14T02:14:35;101468.00;;;-0.21;77.07
16664;BME280;8445;51.270;9.434;2023-02-14T02:37:21;101459.00;;;-1.06;78.25
16664;BME280;8445;51.270;9.434;2023-02-14T02:40:02;101460.69;;;-1.11;78.17
16664;BME280;8445;51.270;9.434;2023-02-14T02:48:34;101456.41;;;-1.06;78.68
16664;BME280;8445;51.270;9.434;2023-02-14T02:51:10;101450.34;;;-1.05;78.96
16664;BME280;8445;51.270;9.434;2023-02-14T02:54:07;101437.34;;;-1.05;78.78
16664;BME280;8445;51.270;9.434;2023-02-14T02:56:38;101442.56;;;-1.06;78.33
16664;BME280;8445;51.270;9.434;2023-02-14T02:59:17;101442.59;;;-1.00;78.46
16664;BME280;8445;51.270;9.434;2023-02-14T03:04:41;101446.03;;;-0.99;78.23
16664;BME280;8445;51.270;9.434;2023-02-14T03:10:05;101447.75;;;-1.05;77.66
16664;BME280;8445;51.270;9.434;2023-02-14T03:18:34;101436.53;;;-1.00;77.77
16664;BME280;8445;51.270;9.434;2023-02-14T03:21:10;101435.66;;;-1.04;77.67
16664;BME280;8445;51.270;9.434;2023-02-14T03:23:49;101432.97;;;-1.15;77.57
16664;BME280;8445;51.270;9.434;2023-02-14T03:26:32;101429.50;;;-1.23;78.28
16664;BME280;8445;51.270;9.434;2023-02-14T03:29:11;101435.50;;;-1.30;78.01
16664;BME280;8445;51.270;9.434;2023-02-14T03:37:20;101431.06;;;-1.45;78.45
16664;BME280;8445;51.270;9.434;2023-02-14T03:40:05;101424.16;;;-1.45;79.56
16664;BME280;8445;51.270;9.434;2023-02-14T03:42:38;101432.78;;;-1.46;78.99
16664;BME280;8445;51.270;9.434;2023-02-14T03:45:08;101426.78;;;-1.42;78.82
16664;BME280;8445;51.270;9.434;2023-02-14T03:47:36;101419.91;;;-1.32;78.60
16664;BME280;8445;51.270;9.434;2023-02-14T03:50:09;101413.88;;;-1.26;78.96
16664;BME280;8445;51.270;9.434;2023-02-14T03:52:37;101416.50;;;-1.23;78.33
16664;BME280;8445;51.270;9.434;2023-02-14T03:55:06;101409.59;;;-1.16;77.89
16664;BME280;8445;51.270;9.434;2023-02-14T04:00:20;101422.69;;;-0.96;78.04
16664;BME280;8445;51.270;9.434;2023-02-14T04:02:52;101416.66;;;-0.87;78.91
16664;BME280;8445;51.270;9.434;2023-02-14T04:05:22;101407.19;;;-0.75;78.88
16664;BME280;8445;51.270;9.434;2023-02-14T04:07:54;101415.00;;;-0.67;78.23
16664;BME280;8445;51.270;9.434;2023-02-14T04:10:21;101415.91;;;-0.60;78.52
16664;BME280;8445;51.270;9.434;2023-02-14T04:12:47;101414.16;;;-0.63;78.41
16664;BME280;8445;51.270;9.434;2023-02-14T04:15:13;101419.34;;;-0.67;78.33
16664;BME280;8445;51.270;9.434;2023-02-14T04:17:39;101424.50;;;-0.75;77.84
16664;BME280;8445;51.270;9.434;2023-02-14T04:20:24;101413.19;;;-0.86;77.51
16664;BME280;8445;51.270;9.434;2023-02-14T04:22:49;101408.94;;;-0.73;77.87
16664;BME280;8445;51.270;9.434;2023-02-14T04:25:19;101405.47;;;-0.72;77.48
16664;BME280;8445;51.270;9.434;2023-02-14T04:27:44;101407.16;;;-0.81;76.88
16664;BME280;8445;51.270;9.434;2023-02-14T04:30:10;101405.38;;;-0.91;76.99
16664;BME280;8445;51.270;9.434;2023-02-14T04:32:37;101401.06;;;-0.94;77.52
16664;BME280;8445;51.270;9.434;2023-02-14T04:35:02;101401.91;;;-0.96;77.65
16664;BME280;8445;51.270;9.434;2023-02-14T04:37:28;101392.38;;;-0.97;77.38
16664;BME280;8445;51.270;9.434;2023-02-14T04:39:53;101399.31;;;-0.93;77.75
16664;BME280;8445;51.270;9.434;2023-02-14T04:42:19;101391.56;;;-0.87;78.57
16664;BME280;8445;51.270;9.434;2023-02-14T04:44:44;101404.56;;;-0.81;78.12
16664;BME280;8445;51.270;9.434;2023-02-14T04:47:09;101395.91;;;-0.80;77.95
16664;BME280;8445;51.270;9.434;2023-02-14T04:49:35;101393.31;;;-0.80;78.57
16664;BME280;8445;51.270;9.434;2023-02-14T04:52:01;101398.47;;;-0.89;78.27
16664;BME280;8445;51.270;9.434;2023-02-14T04:54:27;101396.75;;;-0.84;78.19
16664;BME280;8445;51.270;9.434;2023-02-14T04:56:52;101398.50;;;-0.83;78.57
16664;BME280;8445;51.270;9.434;2023-02-14T04:59:17;101399.34;;;-0.84;78.38
16664;BME280;8445;51.270;9.434;2023-02-14T05:01:43;101412.34;;;-0.84;79.16
16664;BME280;8445;51.270;9.434;2023-02-14T05:04:08;101406.25;;;-0.87;79.30
16664;BME280;8445;51.270;9.434;2023-02-14T05:06:34;101411.47;;;-0.89;79.70
16664;BME280;8445;51.270;9.434;2023-02-14T05:09:00;101408.84;;;-0.92;80.08
16664;BME280;8445;51.270;9.434;2023-02-14T05:11:26;101405.38;;;-0.91;80.28
16664;BME280;8445;51.270;9.434;2023-02-14T05:13:52;101396.72;;;-0.90;81.38
16664;BME280;8445;51.270;9.434;2023-02-14T05:16:18;101392.44;;;-0.85;80.15
16664;BME280;8445;51.270;9.434;2023-02-14T05:18:43;101400.22;;;-0.85;79.93
16664;BME280;8445;51.270;9.434;2023-02-14T05:21:08;101406.28;;;-0.86;79.77
16664;BME280;8445;51.270;9.434;2023-02-14T05:23:35;101395.91;;;-0.80;80.27
16664;BME280;8445;51.270;9.434;2023-02-14T05:26:00;101398.50;;;-0.80;80.11
16664;BME280;8445;51.270;9.434;2023-02-14T05:28:25;101403.72;;;-0.80;78.99
16664;BME280;8445;51.270;9.434;2023-02-14T05:30:51;101389.84;;;-0.82;80.08
16664;BME280;8445;51.270;9.434;2023-02-14T05:33:17;101395.03;;;-0.82;79.99
16664;BME280;8445;51.270;9.434;2023-02-14T05:35:42;101391.56;;;-0.87;80.16
16664;BME280;8445;51.270;9.434;2023-02-14T05:38:07;101389.81;;;-0.90;79.49
16664;BME280;8445;51.270;9.434;2023-02-14T05:40:33;101394.13;;;-0.93;79.46
16664;BME280;8445;51.270;9.434;2023-02-14T05:42:58;101395.84;;;-0.95;80.59
16664;BME280;8445;51.270;9.434;2023-02-14T05:45:24;101395.84;;;-0.97;80.46
16664;BME280;8445;51.270;9.434;2023-02-14T05:47:50;101397.56;;;-0.99;79.63
16664;BME280;8445;51.270;9.434;2023-02-14T05:50:17;101401.00;;;-1.06;79.16
16664;BME280;8445;51.270;9.434;2023-02-14T05:52:43;101396.66;;;-1.09;79.22
16664;BME280;8445;51.270;9.434;2023-02-14T05:55:09;101392.31;;;-1.10;79.46
16664;BME280;8445;51.270;9.434;2023-02-14T05:57:34;101396.63;;;-1.12;78.99
16664;BME280;8445;51.270;9.434;2023-02-14T06:00:00;101385.38;;;-1.11;79.24
16664;BME280;8445;51.270;9.434;2023-02-14T06:02:25;101396.63;;;-1.12;79.05
16664;BME280;8445;51.270;9.434;2023-02-14T06:04:51;101396.59;;;-1.15;78.96
16664;BME280;8445;51.270;9.434;2023-02-14T06:07:17;101394.88;;;-1.16;79.15
16664;BME280;8445;51.270;9.434;2023-02-14T06:09:42;101405.28;;;-1.19;79.62
16664;BME280;8445;51.270;9.434;2023-02-14T06:12:08;101394.03;;;-1.16;79.81
16664;BME280;8445;51.270;9.434;2023-02-14T06:14:33;101406.13;;;-1.17;78.79
16664;BME280;8445;51.270;9.434;2023-02-14T06:16:58;101407.00;;;-1.18;79.03
16664;BME280;8445;51.270;9.434;2023-02-14T06:19:24;101414.78;;;-1.15;79.37
16664;BME280;8445;51.270;9.434;2023-02-14T06:21:49;101418.28;;;-1.11;79.18
16664;BME280;8445;51.270;9.434;2023-02-14T06:24:15;101409.63;;;-1.09;79.72
16664;BME280;8445;51.270;9.434;2023-02-14T06:26:40;101414.81;;;-1.09;79.14
16664;BME280;8445;51.270;9.434;2023-02-14T06:29:05;101414.84;;;-1.10;79.30
16664;BME280;8445;51.270;9.434;2023-02-14T06:31:31;101419.13;;;-1.14;79.31
16664;BME280;8445;51.270;9.434;2023-02-14T06:33:56;101419.09;;;-1.17;79.72
16664;BME280;8445;51.270;9.434;2023-02-14T06:36:22;101409.59;;;-1.21;78.76
16664;BME280;8445;51.270;9.434;2023-02-14T06:38:48;101413.94;;;-1.20;78.85
16664;BME280;8445;51.270;9.434;2023-02-14T06:41:15;101415.66;;;-1.22;79.15
16664;BME280;8445;51.270;9.434;2023-02-14T06:43:42;101426.00;;;-1.24;79.06
16664;BME280;8445;51.270;9.434;2023-02-14T06:46:08;101426.03;;;-1.22;79.61
16664;BME280;8445;51.270;9.434;2023-02-14T06:48:34;101429.50;;;-1.14;79.59
16664;BME280;8445;51.270;9.434;2023-02-14T06:51:00;101419.13;;;-1.14;79.11
16664;BME280;8445;51.270;9.434;2023-02-14T06:53:26;101414.84;;;-1.10;79.32
16664;BME280;8445;51.270;9.434;2023-02-14T06:55:52;101420.91;;;-1.08;79.08
16664;BME280;8445;51.270;9.434;2023-02-14T06:58:17;101413.13;;;-1.03;79.54
16664;BME280;8445;51.270;9.434;2023-02-14T07:00:43;101422.69;;;-0.98;79.75
16664;BME280;8445;51.270;9.434;2023-02-14T07:03:08;101424.47;;;-0.86;80.52
16664;BME280;8445;51.270;9.434;2023-02-14T07:05:34;101423.63;;;-0.80;80.04
16664;BME280;8445;51.270;9.434;2023-02-14T07:08:00;101425.34;;;-0.81;79.88
16664;BME280;8445;51.270;9.434;2023-02-14T07:10:25;101423.63;;;-0.80;80.08
16664;BME280;8445;51.270;9.434;2023-02-14T07:12:51;101422.78;;;-0.75;81.10
16664;BME280;8445;51.270;9.434;2023-02-14T07:15:17;101421.06;;;-0.72;81.17
16664;BME280;8445;51.270;9.434;2023-02-14T07:17:43;101421.94;;;-0.70;80.63
16664;BME280;8445;51.270;9.434;2023-02-14T07:20:11;101422.81;;;-0.68;80.70
16664;BME280;8445;51.270;9.434;2023-02-14T07:22:37;101424.56;;;-0.64;80.60
16664;BME280;8445;51.270;9.434;2023-02-14T07:25:04;101429.78;;;-0.61;81.09
16664;BME280;8445;51.270;9.434;2023-02-14T07:27:30;101421.09;;;-0.51;82.03
16664;BME280;8445;51.270;9.434;2023-02-14T07:29:56;101429.81;;;-0.44;82.14
16664;BME280;8445;51.270;9.434;2023-02-14T07:32:21;101422.88;;;-0.40;81.39
16664;BME280;8445;51.270;9.434;2023-02-14T07:34:48;101428.09;;;-0.37;82.18
16664;BME280;8445;51.270;9.434;2023-02-14T07:37:14;101422.03;;;-0.33;82.04
16664;BME280;8445;51.270;9.434;2023-02-14T07:39:43;101428.13;;;-0.28;81.47
16664;BME280;8445;51.270;9.434;2023-02-14T07:42:12;101431.59;;;-0.26;82.25
16664;BME280;8445;51.270;9.434;2023-02-14T07:44:39;101424.66;;;-0.24;82.43
16664;BME280;8445;51.270;9.434;2023-02-14T07:47:09;101419.47;;;-0.21;82.30
16664;BME280;8445;51.270;9.434;2023-02-14T07:49:35;101424.66;;;-0.18;82.15
16664;BME280;8445;51.270;9.434;2023-02-14T07:52:01;101419.47;;;-0.14;82.82
16664;BME280;8445;51.270;9.434;2023-02-14T07:54:30;101417.75;;;-0.09;82.87
16664;BME280;8445;51.270;9.434;2023-02-14T07:56:56;101408.22;;;-0.01;82.83
16664;BME280;8445;51.270;9.434;2023-02-14T07:59:24;101412.53;;;0.03;83.73
16664;BME280;8445;51.270;9.434;2023-02-14T08:01:50;101411.66;;;0.07;83.61
16664;BME280;8445;51.270;9.434;2023-02-14T08:04:15;101414.25;;;0.07;83.15
16664;BME280;8445;51.270;9.434;2023-02-14T08:06:43;101413.41;;;0.13;83.12
16664;BME280;8445;51.270;9.434;2023-02-14T08:09:09;101409.94;;;0.11;82.91
16664;BME280;8445;51.270;9.434;2023-02-14T08:11:40;101410.78;;;0.11;83.37
16664;BME280;8445;51.270;9.434;2023-02-14T08:14:27;101412.53;;;0.17;83.41
16664;BME280;8445;51.270;9.434;2023-02-14T08:16:58;101417.75;;;0.22;83.19
16664;BME280;8445;51.270;9.434;2023-02-14T08:19:25;101410.81;;;0.25;83.32
16664;BME280;8445;51.270;9.434;2023-02-14T08:21:52;101416.00;;;0.33;82.91
16664;BME280;8445;51.270;9.434;2023-02-14T08:24:17;101415.13;;;0.37;83.15
16664;BME280;8445;51.270;9.434;2023-02-14T08:26:42;101414.25;;;0.44;83.24
16664;BME280;8445;51.270;9.434;2023-02-14T08:29:08;101409.06;;;0.48;83.66
16664;BME280;8445;51.270;9.434;2023-02-14T08:31:39;101409.06;;;0.51;82.71
16664;BME280;8445;51.270;9.434;2023-02-14T08:34:06;101409.91;;;0.53;82.79
16664;BME280;8445;51.270;9.434;2023-02-14T08:36:35;101412.53;;;0.56;82.25
16664;BME280;8445;51.270;9.434;2023-02-14T08:39:05;101407.28;;;0.61;83.05
16664;BME280;8445;51.270;9.434;2023-02-14T08:41:35;101409.00;;;0.66;82.59
16664;BME280;8445;51.270;9.434;2023-02-14T08:44:09;101407.25;;;0.68;83.13
16664;BME280;8445;51.270;9.434;2023-02-14T08:46:41;101405.50;;;0.77;82.92
16664;BME280;8445;51.270;9.434;2023-02-14T08:49:11;101399.44;;;0.82;83.51
16664;BME280;8445;51.270;9.434;2023-02-14T08:51:40;101403.75;;;0.86;83.35
16664;BME280;8445;51.270;9.434;2023-02-14T08:54:10;101408.06;;;0.91;82.80
16664;BME280;8445;51.270;9.434;2023-02-14T08:56:39;101399.38;;;0.95;83.48
16664;BME280;8445;51.270;9.434;2023-02-14T08:59:09;101396.75;;;1.02;83.36
16664;BME280;8445;51.270;9.434;2023-02-14T09:01:37;101398.47;;;1.10;83.41
16664;BME280;8445;51.270;9.434;2023-02-14T09:04:03;101395.78;;;1.19;83.62
16664;BME280;8445;51.270;9.434;2023-02-14T09:06:28;101392.28;;;1.23;83.31
16664;BME280;8445;51.270;9.434;2023-02-14T09:08:54;101390.53;;;1.28;82.88
16664;BME280;8445;51.270;9.434;2023-02-14T09:11:22;101394.88;;;1.34;83.49
16664;BME280;8445;51.270;9.434;2023-02-14T09:13:50;101380.91;;;1.40;83.13
16664;BME280;8445;51.270;9.434;2023-02-14T09:16:18;101377.41;;;1.44;82.64
16664;BME280;8445;51.270;9.434;2023-02-14T09:18:46;101387.81;;;1.50;82.82
16664;BME280;8445;51.270;9.434;2023-02-14T09:21:15;101377.34;;;1.56;83.21
16664;BME280;8445;51.270;9.434;2023-02-14T09:23:41;101380.81;;;1.61;83.46
16664;BME280;8445;51.270;9.434;2023-02-14T09:26:09;101374.66;;;1.70;83.02
16664;BME280;8445;51.270;9.434;2023-02-14T09:28:35;101368.47;;;1.79;82.63
16664;BME280;8445;51.270;9.434;2023-02-14T09:31:14;101370.16;;;1.89;82.49
16664;BME280;8445;51.270;9.434;2023-02-14T09:33:45;101371.84;;;1.93;82.44
16664;BME280;8445;51.270;9.434;2023-02-14T09:36:11;101365.72;;;2.02;82.94
16664;BME280;8445;51.270;9.434;2023-02-14T09:38:42;101376.06;;;2.12;82.81
16664;BME280;8445;51.270;9.434;2023-02-14T09:41:28;101374.25;;;2.20;82.71
16664;BME280;8445;51.270;9.434;2023-02-14T09:44:07;101358.50;;;2.29;83.00
16664;BME280;8445;51.270;9.434;2023-02-14T09:46:40;101361.06;;;2.34;82.83
16664;BME280;8445;51.270;9.434;2023-02-14T09:49:12;101360.13;;;2.40;84.15
16664;BME280;8445;51.270;9.434;2023-02-14T09:51:44;101353.06;;;2.51;83.44
16664;BME280;8445;51.270;9.434;2023-02-14T09:54:13;101361.59;;;2.67;81.83
16664;BME280;8445;51.270;9.434;2023-02-14T09:59:36;101364.00;;;2.86;83.51
16664;BME280;8445;51.270;9.434;2023-02-14T10:02:32;101352.59;;;2.91;82.17
16664;BME280;8445;51.270;9.434;2023-02-14T10:05:24;101362.00;;;3.03;82.81
16664;BME280;8445;51.270;9.434;2023-02-14T10:11:18;101364.25;;;3.33;82.52
16664;BME280;8445;51.270;9.434;2023-02-14T10:17:03;101356.13;;;3.53;82.85
16664;BME280;8445;51.270;9.434;2023-02-14T10:19:37;101358.59;;;3.62;82.39
16664;BME280;8445;51.270;9.434;2023-02-14T10:22:11;101368.91;;;3.71;82.78
16664;BME280;8445;51.270;9.434;2023-02-14T10:24:45;101362.72;;;3.79;82.35
16664;BME280;8445;51.270;9.434;2023-02-14T10:27:40;101364.34;;;3.86;83.50
16664;BME280;8445;51.270;9.434;2023-02-14T10:30:17;101359.81;;;3.96;82.89
16664;BME280;8445;51.270;9.434;2023-02-14T10:35:33;101354.38;;;4.08;82.82
16664;BME280;8445;51.270;9.434;2023-02-14T10:41:18;101348.88;;;4.22;82.88
16664;BME280;8445;51.270;9.434;2023-02-14T10:46:41;101338.97;;;4.40;82.17
16664;BME280;8445;51.270;9.434;2023-02-14T10:52:24;101337.84;;;4.52;83.58
16664;BME280;8445;51.270;9.434;2023-02-14T10:54:59;101338.56;;;4.62;82.70
16664;BME280;8445;51.270;9.434;2023-02-14T10:57:30;101327.91;;;4.71;82.15
16664;BME280;8445;51.270;9.434;2023-02-14T11:00:03;101328.56;;;4.79;82.17
16664;BME280;8445;51.270;9.434;2023-02-14T11:02:34;101328.47;;;4.85;82.24
16664;BME280;8445;51.270;9.434;2023-02-14T11:05:02;101326.53;;;4.94;82.22
16664;BME280;8445;51.270;9.434;2023-02-14T11:07:28;101325.53;;;5.01;81.95
16664;BME280;8445;51.270;9.434;2023-02-14T11:09:55;101327.13;;;5.08;81.84
16664;BME280;8445;51.270;9.434;2023-02-14T11:12:35;101314.75;;;5.13;82.08
16664;BME280;8445;51.270;9.434;2023-02-14T11:15:21;101321.53;;;5.24;82.44
16664;BME280;8445;51.270;9.434;2023-02-14T11:17:47;101311.75;;;5.30;81.92
16664;BME280;8445;51.270;9.434;2023-02-14T11:20:26;101313.28;;;5.39;81.68
16664;BME280;8445;51.270;9.434;2023-02-14T11:22:55;101304.34;;;5.48;81.35
16664;BME280;8445;51.270;9.434;2023-02-14T11:25:26;101306.78;;;5.56;81.55
16664;BME280;8445;51.270;9.434;2023-02-14T11:28:12;101302.16;;;5.66;81.28
16664;BME280;8445;51.270;9.434;2023-02-14T11:30:42;101294.13;;;5.72;81.15
16664;BME280;8445;51.270;9.434;2023-02-14T11:33:29;101304.41;;;5.83;80.95
16664;BME280;8445;51.270;9.434;2023-02-14T11:35:57;101299.97;;;5.85;81.13
16664;BME280;8445;51.270;9.434;2023-02-14T11:38:28;101298.03;;;5.91;81.27
16664;BME280;8445;51.270;9.434;2023-02-14T11:40:56;101304.78;;;6.36;82.40
16664;BME280;8445;51.270;9.434;2023-02-14T11:48:35;101274.25;;;6.62;80.04
16664;BME280;8445;51.270;9.434;2023-02-14T11:51:12;101269.06;;;6.59;80.03
16664;BME280;8445;51.270;9.434;2023-02-14T11:53:46;101271.69;;;6.59;80.19
16664;BME280;8445;51.270;9.434;2023-02-14T11:56:14;101266.22;;;6.67;80.66
16664;BME280;8445;51.270;9.434;2023-02-14T12:01:31;101258.88;;;6.78;80.95
16664;BME280;8445;51.270;9.434;2023-02-14T12:04:05;101258.78;;;6.81;80.51
16664;BME280;8445;51.270;9.434;2023-02-14T12:06:34;101264.84;;;6.83;80.18
16664;BME280;8445;51.270;9.434;2023-02-14T12:09:25;101257.66;;;6.90;79.99
16664;BME280;8445;51.270;9.434;2023-02-14T12:11:59;101246.22;;;6.91;80.27
16664;BME280;8445;51.270;9.434;2023-02-14T12:14:28;101242.72;;;6.91;79.77
16664;BME280;8445;51.270;9.434;2023-02-14T12:19:56;101247.84;;;6.95;79.90
16664;BME280;8445;51.270;9.434;2023-02-14T12:22:29;101241.50;;;7.03;79.83
16664;BME280;8445;51.270;9.434;2023-02-14T12:32:38;101218.31;;;7.14;80.21
16664;BME280;8445;51.270;9.434;2023-02-14T12:35:19;101221.56;;;7.22;79.46
16664;BME280;8445;51.270;9.434;2023-02-14T12:41:01;101212.50;;;7.31;78.72
16664;BME280;8445;51.270;9.434;2023-02-14T12:43:44;101207.19;;;7.33;77.55
16664;BME280;8445;51.270;9.434;2023-02-14T12:51:48;101210.44;;;7.41;78.59
16664;BME280;8445;51.270;9.434;2023-02-14T12:57:05;101206.69;;;7.48;78.34
16664;BME280;8445;51.270;9.434;2023-02-14T12:59:45;101203.25;;;7.46;77.84
16664;BME280;8445;51.270;9.434;2023-02-14T13:02:43;101195.28;;;7.48;77.24
16664;BME280;8445;51.270;9.434;2023-02-14T13:11:00;101185.63;;;7.48;77.02
16664;BME280;8445;51.270;9.434;2023-02-14T13:13:55;101185.63;;;7.48;78.36
16664;BME280;8445;51.270;9.434;2023-02-14T13:17:06;101185.41;;;7.54;78.91
16664;BME280;8445;51.270;9.434;2023-02-14T13:20:00;101178.41;;;7.53;78.49
16664;BME280;8445;51.270;9.434;2023-02-14T13:22:29;101174.88;;;7.54;78.49
16664;BME280;8445;51.270;9.434;2023-02-14T13:25:03;101170.41;;;7.56;78.75
16664;BME280;8445;51.270;9.434;2023-02-14T13:27:32;101173.97;;;7.55;78.93
16664;BME280;8445;51.270;9.434;2023-02-14T13:30:10;101165.97;;;7.59;78.81
16664;BME280;8445;51.270;9.434;2023-02-14T13:32:41;101171.22;;;7.59;78.99
16664;BME280;8445;51.270;9.434;2023-02-14T13:35:14;101158.88;;;7.61;78.62
16664;BME280;8445;51.270;9.434;2023-02-14T13:37:45;101159.78;;;7.60;78.61
16664;BME280;8445;51.270;9.434;2023-02-14T13:40:24;101155.25;;;7.63;78.72
16664;BME280;8445;51.270;9.434;2023-02-14T13:42:58;101146.50;;;7.63;78.65
16664;BME280;8445;51.270;9.434;2023-02-14T13:48:10;101149.94;;;7.65;77.08
16664;BME280;8445;51.270;9.434;2023-02-14T13:53:33;101145.34;;;7.70;78.00
16664;BME280;8445;51.270;9.434;2023-02-14T13:56:04;101139.25;;;7.68;78.82
16664;BME280;8445;51.270;9.434;2023-02-14T13:58:30;101149.94;;;7.65;78.74
16664;BME280;8445;51.270;9.434;2023-02-14T14:00:56;101143.72;;;7.66;78.74
16664;BME280;8445;51.270;9.434;2023-02-14T14:10:58;101140.00;;;7.97;78.50
16664;BME280;8445;51.270;9.434;2023-02-14T14:22:01;101124.34;;;7.68;77.68
16664;BME280;8445;51.270;9.434;2023-02-14T14:24:32;101126.44;;;7.59;77.56
16664;BME280;8445;51.270;9.434;2023-02-14T14:27:00;101131.13;;;7.50;77.88
16664;BME280;8445;51.270;9.434;2023-02-14T14:29:36;101133.19;;;7.40;78.30
16664;BME280;8445;51.270;9.434;2023-02-14T14:32:31;101119.28;;;7.37;77.08
16664;BME280;8445;51.270;9.434;2023-02-14T14:34:58;101128.41;;;7.26;78.36
16664;BME280;8445;51.270;9.434;2023-02-14T14:37:32;101118.78;;;7.25;78.35
16664;BME280;8445;51.270;9.434;2023-02-14T14:40:01;101114.53;;;7.21;78.63
16664;BME280;8445;51.270;9.434;2023-02-14T14:42:30;101112.81;;;7.20;78.41
16664;BME280;8445;51.270;9.434;2023-02-14T14:45:02;101106.81;;;7.17;78.37
16664;BME280;8445;51.270;9.434;2023-02-14T14:47:40;101107.88;;;7.11;78.24
16664;BME280;8445;51.270;9.434;2023-02-14T14:50:19;101121.03;;;7.11;78.12
16664;BME280;8445;51.270;9.434;2023-02-14T14:52:48;101117.75;;;7.04;78.41
16664;BME280;8445;51.270;9.434;2023-02-14T14:55:22;101117.00;;;7.01;77.79
16664;BME280;8445;51.270;9.434;2023-02-14T14:57:53;101109.25;;;6.96;78.28
16664;BME280;8445;51.270;9.434;2023-02-14T15:10:47;101102.22;;;6.70;78.22
16664;BME280;8445;51.270;9.434;2023-02-14T15:13:14;101102.41;;;6.63;78.15
16664;BME280;8445;51.270;9.434;2023-02-14T15:15:58;101109.56;;;6.58;78.65
16664;BME280;8445;51.270;9.434;2023-02-14T15:18:32;101094.72;;;6.57;78.62
16664;BME280;8445;51.270;9.434;2023-02-14T15:20:58;101095.81;;;6.50;78.44
16664;BME280;8445;51.270;9.434;2023-02-14T15:23:26;101096.78;;;6.47;78.56
16664;BME280;8445;51.270;9.434;2023-02-14T15:25:52;101089.03;;;6.43;78.45
16664;BME280;8445;51.270;9.434;2023-02-14T15:28:33;101085.72;;;6.36;78.54
16664;BME280;8445;51.270;9.434;2023-02-14T15:31:04;101097.53;;;6.22;78.52
16664;BME280;8445;51.270;9.434;2023-02-14T15:33:31;101084.53;;;6.18;78.66
16664;BME280;8445;51.270;9.434;2023-02-14T15:36:01;101090.88;;;6.11;78.50
16664;BME280;8445;51.270;9.434;2023-02-14T15:38:34;101085.94;;;5.98;78.64
16664;BME280;8445;51.270;9.434;2023-02-14T15:41:11;101090.47;;;5.93;78.41